createdAt,value
2018-07-30T00:05:00.508Z,0
2018-07-30T00:10:00.307Z,0
2018-07-30T00:14:59.598Z,0
2018-07-30T00:20:00.016Z,0
2018-07-30T00:25:00.352Z,0
2018-07-30T00:30:00.676Z,0
2018-07-30T00:35:00.395Z,0
2018-07-30T00:39:59.914Z,0
2018-07-30T00:44:59.710Z,0
2018-07-30T00:49:59.691Z,0
2018-07-30T00:54:59.791Z,0
2018-07-30T00:59:59.861Z,0
2018-07-30T01:04:59.820Z,0
2018-07-30T01:10:00.364Z,0
2018-07-30T01:14:59.762Z,0
2018-07-30T01:19:59.907Z,0
2018-07-30T01:25:00.038Z,0
2018-07-30T01:30:00.035Z,0
2018-07-30T01:34:59.667Z,0
2018-07-30T01:40:00.284Z,0
2018-07-30T01:44:59.663Z,0
2018-07-30T01:49:59.947Z,0
2018-07-30T01:54:59.815Z,0
2018-07-30T02:00:03.247Z,0
2018-07-30T02:05:00.272Z,0
2018-07-30T02:10:00.850Z,0
2018-07-30T02:15:01.299Z,0
2018-07-30T02:19:59.588Z,0
2018-07-30T02:24:59.518Z,0
2018-07-30T02:29:59.797Z,0
2018-07-30T02:34:59.694Z,0
2018-07-30T02:39:59.697Z,0
2018-07-30T02:44:59.537Z,0
2018-07-30T02:49:59.383Z,0
2018-07-30T02:54:59.539Z,0
2018-07-30T02:59:59.691Z,0
2018-07-30T03:04:59.451Z,0
2018-07-30T03:09:59.215Z,0
2018-07-30T03:14:59.203Z,0
2018-07-30T03:19:59.406Z,0
2018-07-30T03:24:59.249Z,0
2018-07-30T03:29:59.743Z,0
2018-07-30T03:34:59.159Z,0
2018-07-30T03:39:59.452Z,0
2018-07-30T03:44:59.546Z,0
2018-07-30T03:49:59.851Z,0
2018-07-30T03:54:59.364Z,0.8
2018-07-30T03:59:59.496Z,1.7
2018-07-30T04:04:59.412Z,2.5
2018-07-30T04:09:59.231Z,3.3
2018-07-30T04:14:59.435Z,4.2
2018-07-30T04:19:59.158Z,6.7
2018-07-30T04:24:59.565Z,7.5
2018-07-30T04:29:59.292Z,11.7
2018-07-30T04:34:59.413Z,13.3
2018-07-30T04:39:59.588Z,17.5
2018-07-30T04:44:59.399Z,26.7
2018-07-30T04:49:59.485Z,20
2018-07-30T04:54:58.986Z,26.7
2018-07-30T04:59:59.058Z,30
2018-07-30T05:04:59.025Z,30
2018-07-30T05:09:58.933Z,33.3
2018-07-30T05:14:59.406Z,35.8
2018-07-30T05:19:59.372Z,29.2
2018-07-30T05:24:59.192Z,37.5
2018-07-30T05:29:59.053Z,46.7
2018-07-30T05:34:59.410Z,34.2
2018-07-30T05:39:59.298Z,37.5
2018-07-30T05:44:59.187Z,37.5
2018-07-30T05:49:58.935Z,44.2
2018-07-30T05:54:59.054Z,62.5
2018-07-30T06:00:01.359Z,109.2
2018-07-30T06:04:59.101Z,125.8
2018-07-30T06:09:59.181Z,119.2
2018-07-30T06:14:59.720Z,98.3
2018-07-30T06:19:59.024Z,64.2
2018-07-30T06:24:58.914Z,64.2
2018-07-30T06:29:58.943Z,132.5
2018-07-30T06:34:58.983Z,105
2018-07-30T06:39:59.015Z,161.7
2018-07-30T06:44:59.103Z,159.2
2018-07-30T06:49:59.002Z,120.8
2018-07-30T06:54:59.126Z,173.3
2018-07-30T06:59:58.918Z,142.5
2018-07-30T07:04:59.162Z,109.2
2018-07-30T07:09:58.801Z,178.3
2018-07-30T07:14:58.867Z,128.3
2018-07-30T07:19:59.173Z,127.5
2018-07-30T07:24:58.912Z,111.7
2018-07-30T07:29:58.778Z,112.5
2018-07-30T07:34:58.909Z,114.2
2018-07-30T07:39:58.841Z,180.8
2018-07-30T07:44:58.916Z,198.3
2018-07-30T07:49:58.837Z,162.5
2018-07-30T07:54:59.080Z,166.7
2018-07-30T07:59:58.873Z,228.3
2018-07-30T08:04:59.002Z,260.8
2018-07-30T08:09:59.186Z,272.5
2018-07-30T08:14:58.825Z,234.2
2018-07-30T08:19:59.052Z,166.7
2018-07-30T08:24:59.011Z,160.8
2018-07-30T08:29:59.531Z,187.5
2018-07-30T08:34:58.847Z,195.8
2018-07-30T08:44:38.864Z,203.3
2018-07-30T08:44:58.735Z,207.5
2018-07-30T08:49:58.863Z,216.7
2018-07-30T08:54:58.699Z,315.8
2018-07-30T08:59:58.707Z,317.5
2018-07-30T09:04:58.580Z,296.7
2018-07-30T09:09:58.819Z,356.7
2018-07-30T09:14:58.645Z,385.8
2018-07-30T09:19:58.755Z,305
2018-07-30T09:24:58.590Z,276.7
2018-07-30T09:29:58.756Z,405.8
2018-07-30T09:34:58.694Z,374.2
2018-07-30T09:39:58.715Z,417.5
2018-07-30T09:44:58.647Z,445.8
2018-07-30T09:49:58.765Z,460
2018-07-30T09:54:58.888Z,481.7
2018-07-30T09:59:58.708Z,429.2
2018-07-30T10:04:58.731Z,374.2
2018-07-30T10:09:58.713Z,484.2
2018-07-30T10:14:58.757Z,535.8
2018-07-30T10:19:58.536Z,570.8
2018-07-30T10:24:58.829Z,290.8
2018-07-30T10:29:58.872Z,575
2018-07-30T10:34:58.750Z,351.7
2018-07-30T10:39:58.679Z,597.5
2018-07-30T10:44:58.502Z,624.2
2018-07-30T10:49:58.768Z,346.7
2018-07-30T10:54:58.600Z,445
2018-07-30T10:59:58.539Z,385
2018-07-30T11:04:58.571Z,565
2018-07-30T11:09:58.479Z,272.5
2018-07-30T11:14:58.469Z,336.7
2018-07-30T11:19:58.513Z,245
2018-07-30T11:24:58.641Z,700.8
2018-07-30T11:29:58.713Z,519.2
2018-07-30T11:34:58.447Z,600
2018-07-30T11:39:58.468Z,295
2018-07-30T11:44:58.525Z,607.5
2018-07-30T11:49:58.734Z,327.5
2018-07-30T11:54:58.588Z,621.7
2018-07-30T11:59:58.730Z,853.3
2018-07-30T12:04:58.335Z,411.7
2018-07-30T12:09:58.436Z,351.7
2018-07-30T12:14:58.615Z,896.7
2018-07-30T12:19:58.514Z,965
2018-07-30T12:24:58.446Z,687.5
2018-07-30T12:29:58.635Z,492.5
2018-07-30T12:34:58.542Z,375
2018-07-30T12:40:00.244Z,320
2018-07-30T12:44:58.598Z,927.5
2018-07-30T12:49:58.331Z,231.7
2018-07-30T12:54:58.272Z,1066.7
2018-07-30T12:59:58.616Z,1061.7
2018-07-30T13:04:58.577Z,1138.3
2018-07-30T13:09:58.380Z,1157.5
2018-07-30T13:14:58.589Z,305
2018-07-30T13:19:58.250Z,1042.5
2018-07-30T13:24:58.261Z,828.3
2018-07-30T13:29:58.189Z,715
2018-07-30T13:34:58.400Z,1208.3
2018-07-30T13:39:58.384Z,1253.3
2018-07-30T13:44:58.483Z,358.3
2018-07-30T13:49:58.534Z,398.3
2018-07-30T13:54:58.369Z,281.7
2018-07-30T13:59:58.287Z,410
2018-07-30T14:04:58.633Z,751.7
2018-07-30T14:09:58.403Z,421.7
2018-07-30T14:14:58.444Z,1486.7
2018-07-30T14:19:58.514Z,1516.7
2018-07-30T14:24:58.492Z,1428.3
2018-07-30T14:29:58.406Z,309.2
2018-07-30T14:34:58.343Z,590.8
2018-07-30T14:39:58.355Z,651.7
2018-07-30T14:44:58.328Z,391.7
2018-07-30T14:49:58.255Z,1205
2018-07-30T14:54:58.235Z,1402.5
2018-07-30T14:59:58.518Z,1385
2018-07-30T15:04:58.277Z,352.5
2018-07-30T15:09:58.108Z,295
2018-07-30T15:14:58.308Z,1137.5
2018-07-30T15:19:58.364Z,316.7
2018-07-30T15:24:58.294Z,315
2018-07-30T15:29:58.448Z,696.7
2018-07-30T15:34:58.368Z,385.8
2018-07-30T15:39:58.327Z,442.5
2018-07-30T15:44:58.107Z,381.7
2018-07-30T15:49:58.452Z,800
2018-07-30T15:54:58.299Z,266.7
2018-07-30T15:59:58.050Z,520
2018-07-30T16:04:58.341Z,324.2
2018-07-30T16:09:58.108Z,292.5
2018-07-30T16:14:58.381Z,230.8
2018-07-30T16:19:58.304Z,160.8
2018-07-30T16:24:58.109Z,148.3
2018-07-30T16:29:57.996Z,74.2
2018-07-30T16:34:58.293Z,62.5
2018-07-30T16:39:58.216Z,90.8
2018-07-30T16:44:58.288Z,133.3
2018-07-30T16:49:58.253Z,166.7
2018-07-30T16:59:58.038Z,144.2
2018-07-30T17:04:58.101Z,190.8
2018-07-30T17:09:58.226Z,157.5
2018-07-30T17:14:58.035Z,99.2
2018-07-30T17:19:58.059Z,140.8
2018-07-30T17:24:58.000Z,141.7
2018-07-30T17:29:58.034Z,142.5
2018-07-30T17:34:58.236Z,82.5
2018-07-30T17:39:58.088Z,106.7
2018-07-30T17:44:57.912Z,85
2018-07-30T17:49:58.343Z,79.2
2018-07-30T17:54:58.220Z,82.5
2018-07-30T17:59:58.167Z,71.7
2018-07-30T18:04:58.066Z,59.2
2018-07-30T18:09:57.976Z,41.7
2018-07-30T18:14:58.142Z,44.2
2018-07-30T18:19:58.115Z,35
2018-07-30T18:24:58.087Z,51.7
2018-07-30T18:29:57.834Z,35
2018-07-30T18:34:58.164Z,30
2018-07-30T18:39:58.050Z,32.5
2018-07-30T18:44:58.046Z,38.3
2018-07-30T18:49:57.822Z,36.7
2018-07-30T18:54:57.805Z,23.3
2018-07-30T18:59:58.074Z,14.2
2018-07-30T19:04:57.944Z,11.7
2018-07-30T19:09:57.947Z,9.2
2018-07-30T19:14:58.018Z,7.5
2018-07-30T19:19:57.989Z,5.8
2018-07-30T19:25:01.247Z,4.2
2018-07-30T19:30:00.813Z,2.5
2018-07-30T19:35:00.638Z,1.7
2018-07-30T19:40:01.136Z,0.8
2018-07-30T19:45:00.831Z,0
2018-07-30T19:50:00.463Z,0
2018-07-30T19:55:00.672Z,0
2018-07-30T20:00:00.618Z,0
2018-07-30T20:05:00.570Z,0
2018-07-30T20:10:00.617Z,0
2018-07-30T20:15:00.651Z,0
2018-07-30T20:20:00.685Z,0
2018-07-30T20:25:00.626Z,0
2018-07-30T20:30:00.242Z,0
2018-07-30T20:35:00.320Z,0
2018-07-30T20:40:00.535Z,0
2018-07-30T20:45:00.339Z,0
2018-07-30T20:50:00.283Z,0
2018-07-30T20:55:00.173Z,0
2018-07-30T21:00:00.618Z,0
2018-07-30T21:05:00.314Z,0
2018-07-30T21:10:00.282Z,0
2018-07-30T21:15:00.400Z,0
2018-07-30T21:20:00.115Z,0
2018-07-30T21:25:00.435Z,0
2018-07-30T21:30:00.294Z,0
2018-07-30T21:35:00.297Z,0
2018-07-30T21:40:00.367Z,0
2018-07-30T21:45:00.459Z,0
2018-07-30T21:50:00.074Z,0
2018-07-30T21:55:00.396Z,0
2018-07-30T22:00:00.463Z,0
2018-07-30T22:05:00.441Z,0
2018-07-30T22:10:00.673Z,0
2018-07-30T22:15:00.327Z,0
2018-07-30T22:20:00.341Z,0
2018-07-30T22:25:00.329Z,0
2018-07-30T22:30:00.523Z,0
2018-07-30T22:35:00.573Z,0
2018-07-30T22:40:00.898Z,0
2018-07-30T22:45:00.062Z,0
2018-07-30T22:50:00.286Z,0
2018-07-30T22:55:00.404Z,0
2018-07-30T23:00:00.694Z,0
2018-07-30T23:05:00.093Z,0
2018-07-30T23:10:00.061Z,0
2018-07-30T23:15:01.160Z,0
2018-07-30T23:20:00.541Z,0
2018-07-30T23:25:00.132Z,0
2018-07-30T23:30:00.826Z,0
2018-07-30T23:34:59.983Z,0
2018-07-30T23:40:00.651Z,0
2018-07-30T23:45:00.176Z,0
2018-07-30T23:50:00.069Z,0
2018-07-30T23:55:00.165Z,0
